ANACAPA ISLAND CA US current weather conditions

sailwx.info

Wind from 302 at 6 knots gusting 11

Air temperature 16.1° C
Dewpoint 12.1° C

Last reported at 2016-May-02 22:23 UTC.
Time now 2016-May-02 23:13 UTC

Location: N 34°01' W 119°22'.
View on Google Maps.

See reports from other nearby stations

  
Tides and Currents Weather Stations Pressure Air Temp Water Temp Dewpoint Dewpoint Depression Visibility Wind Speed Wind Dir Waves Ship Positions
date/time (UTC)wind fromknots sea level pressurealtimeterstation pressurevisibilityair tempwater tempwave heightnotes
2016-May-02 22:23 302 6 gusting 11 16.1
2016-May-02 21:23 301 6 gusting 11 16.1
2016-May-02 20:23 302 6 gusting 9 16.1
2016-May-02 19:23 319 4 gusting 7 16.1
2016-May-02 18:23 240 1 gusting 6 16.1
2016-May-02 17:23 236 2 gusting 6 15.0
2016-May-02 16:23 296 1 gusting 5 15.0
2016-May-02 15:23 118 0 gusting 4 13.9
2016-May-02 14:23 004 0 gusting 6 13.3
2016-May-02 13:23 151 0 gusting 3 13.3
2016-May-02 12:23 038 0 gusting 4 12.8
2016-May-02 11:23 335 0 gusting 5 13.3
2016-May-02 10:23 040 1 gusting 6 13.3
2016-May-02 09:23 030 0 gusting 5 12.8
2016-May-02 08:23 275 0 gusting 4 12.8
2016-May-02 07:23 293 0 gusting 4 13.3
2016-May-02 06:23 001 0 gusting 4 13.3
2016-May-02 05:23 294 1 gusting 6 13.3
2016-May-02 04:23 275 2 gusting 9 13.9
2016-May-02 03:23 265 4 gusting 8 13.9
2016-May-02 02:23 265 4 gusting 12 14.4
2016-May-02 01:23 262 6 gusting 14 15.0
2016-May-02 00:23 263 6 gusting 11 15.6
2016-May-01 23:23 256 4 gusting 10 16.7
2016-May-01 22:23 258 6 gusting 16 16.1
2016-May-01 21:23 280 7 gusting 14 16.1
2016-May-01 20:23 326 2 gusting 8 17.8
2016-May-01 19:23 043 3 gusting 9 17.2
2016-May-01 18:23 024 2 gusting 6 17.2
2016-May-01 17:23 053 3 gusting 8 16.1
2016-May-01 16:23 034 2 gusting 7 15.0
2016-May-01 15:23 046 4 gusting 10 15.0
2016-May-01 14:23 051 4 gusting 11 13.9
2016-May-01 13:23 046 4 gusting 11 13.3
2016-May-01 12:23 054 5 gusting 10 13.3
2016-May-01 11:23 075 4 gusting 8 13.3
2016-May-01 10:23 098 4 gusting 8 13.3
2016-May-01 09:23 073 1 gusting 5 12.8
2016-May-01 08:23 330 5 gusting 7 12.8
2016-May-01 07:23 327 5 gusting 10 13.3
2016-May-01 06:23 301 5 gusting 12 13.3
2016-May-01 05:23 298 9 gusting 13 13.9
2016-May-01 04:23 332 7 gusting 11 13.3
2016-May-01 03:23 135 3 gusting 7 13.9
2016-May-01 02:23 127 3 gusting 7 15.6
2016-May-01 01:23 308 3 gusting 7 17.8
2016-May-01 00:23 230 5 gusting 13 17.2
2016-Apr-30 23:23 303 10 gusting 17 15.6